sensor_id;sensor_type;location;lat;lon;timestamp;temperature;humidity
57660;DHT22;43485;45.680;15.702;2023-07-31T00:00:15;20.70;67.60
57660;DHT22;43485;45.680;15.702;2023-07-31T00:02:41;20.70;67.70
57660;DHT22;43485;45.680;15.702;2023-07-31T00:05:08;20.60;67.10
57660;DHT22;43485;45.680;15.702;2023-07-31T00:07:55;20.60;67.50
57660;DHT22;43485;45.680;15.702;2023-07-31T00:10:22;20.60;67.60
57660;DHT22;43485;45.680;15.702;2023-07-31T00:12:48;20.60;67.70
57660;DHT22;43485;45.680;15.702;2023-07-31T00:15:34;20.60;67.70
57660;DHT22;43485;45.680;15.702;2023-07-31T00:18:00;20.60;68.60
57660;DHT22;43485;45.680;15.702;2023-07-31T00:20:26;20.60;67.90
57660;DHT22;43485;45.680;15.702;2023-07-31T00:22:53;20.50;68.20
57660;DHT22;43485;45.680;15.702;2023-07-31T00:25:19;20.40;68.20
57660;DHT22;43485;45.680;15.702;2023-07-31T00:27:45;20.40;68.00
57660;DHT22;43485;45.680;15.702;2023-07-31T00:30:11;20.40;68.20
57660;DHT22;43485;45.680;15.702;2023-07-31T00:32:37;20.40;68.30
57660;DHT22;43485;45.680;15.702;2023-07-31T00:35:04;20.40;68.50
57660;DHT22;43485;45.680;15.702;2023-07-31T00:37:36;20.30;68.30
57660;DHT22;43485;45.680;15.702;2023-07-31T00:40:02;20.30;68.50
57660;DHT22;43485;45.680;15.702;2023-07-31T00:42:29;20.20;67.80
57660;DHT22;43485;45.680;15.702;2023-07-31T00:44:55;20.20;68.50
57660;DHT22;43485;45.680;15.702;2023-07-31T00:47:23;20.10;68.40
57660;DHT22;43485;45.680;15.702;2023-07-31T00:49:49;20.00;68.50
57660;DHT22;43485;45.680;15.702;2023-07-31T00:52:16;19.90;68.90
57660;DHT22;43485;45.680;15.702;2023-07-31T00:54:42;19.90;68.80
57660;DHT22;43485;45.680;15.702;2023-07-31T00:57:09;19.80;68.70
57660;DHT22;43485;45.680;15.702;2023-07-31T00:59:39;19.80;68.70
57660;DHT22;43485;45.680;15.702;2023-07-31T01:02:05;19.70;69.00
57660;DHT22;43485;45.680;15.702;2023-07-31T01:04:34;19.60;68.50
57660;DHT22;43485;45.680;15.702;2023-07-31T01:12:57;19.60;68.90
57660;DHT22;43485;45.680;15.702;2023-07-31T01:15:23;19.60;69.30
57660;DHT22;43485;45.680;15.702;2023-07-31T01:17:49;19.60;69.30
57660;DHT22;43485;45.680;15.702;2023-07-31T01:20:35;19.60;68.90
57660;DHT22;43485;45.680;15.702;2023-07-31T01:32:21;19.70;69.00
57660;DHT22;43485;45.680;15.702;2023-07-31T01:34:49;19.80;69.00
57660;DHT22;43485;45.680;15.702;2023-07-31T01:37:15;19.80;69.20
57660;DHT22;43485;45.680;15.702;2023-07-31T01:39:41;19.80;69.30
57660;DHT22;43485;45.680;15.702;2023-07-31T01:42:07;19.80;69.20
57660;DHT22;43485;45.680;15.702;2023-07-31T01:44:51;19.80;69.50
57660;DHT22;43485;45.680;15.702;2023-07-31T01:47:17;19.80;69.20
57660;DHT22;43485;45.680;15.702;2023-07-31T01:50:04;19.90;69.50
57660;DHT22;43485;45.680;15.702;2023-07-31T01:52:31;19.90;69.30
57660;DHT22;43485;45.680;15.702;2023-07-31T01:55:06;20.00;69.50
57660;DHT22;43485;45.680;15.702;2023-07-31T01:57:32;20.00;68.80
57660;DHT22;43485;45.680;15.702;2023-07-31T01:59:59;20.00;69.80
57660;DHT22;43485;45.680;15.702;2023-07-31T02:02:28;20.00;69.20
57660;DHT22;43485;45.680;15.702;2023-07-31T02:04:54;20.00;69.60
57660;DHT22;43485;45.680;15.702;2023-07-31T02:07:19;20.00;69.70
57660;DHT22;43485;45.680;15.702;2023-07-31T02:09:53;20.00;69.60
57660;DHT22;43485;45.680;15.702;2023-07-31T02:12:21;20.00;69.70
57660;DHT22;43485;45.680;15.702;2023-07-31T02:14:49;20.00;69.90
57660;DHT22;43485;45.680;15.702;2023-07-31T02:17:15;20.00;70.10
57660;DHT22;43485;45.680;15.702;2023-07-31T02:19:41;20.00;70.20
57660;DHT22;43485;45.680;15.702;2023-07-31T02:22:29;20.00;70.30
57660;DHT22;43485;45.680;15.702;2023-07-31T02:24:55;19.90;70.70
57660;DHT22;43485;45.680;15.702;2023-07-31T02:27:21;19.90;70.80
57660;DHT22;43485;45.680;15.702;2023-07-31T02:29:49;19.80;70.60
57660;DHT22;43485;45.680;15.702;2023-07-31T02:32:26;19.70;71.00
57660;DHT22;43485;45.680;15.702;2023-07-31T02:34:52;19.60;71.00
57660;DHT22;43485;45.680;15.702;2023-07-31T02:37:18;19.60;71.00
57660;DHT22;43485;45.680;15.702;2023-07-31T02:39:44;19.50;71.00
57660;DHT22;43485;45.680;15.702;2023-07-31T02:42:10;19.50;71.00
57660;DHT22;43485;45.680;15.702;2023-07-31T02:44:41;19.50;70.90
57660;DHT22;43485;45.680;15.702;2023-07-31T02:47:08;19.50;71.00
57660;DHT22;43485;45.680;15.702;2023-07-31T02:49:34;19.60;70.90
57660;DHT22;43485;45.680;15.702;2023-07-31T02:52:00;19.60;70.70
57660;DHT22;43485;45.680;15.702;2023-07-31T02:54:26;19.50;70.60
57660;DHT22;43485;45.680;15.702;2023-07-31T02:56:55;19.50;70.70
57660;DHT22;43485;45.680;15.702;2023-07-31T02:59:21;19.50;70.60
57660;DHT22;43485;45.680;15.702;2023-07-31T03:01:47;19.50;70.70
57660;DHT22;43485;45.680;15.702;2023-07-31T03:04:19;19.50;70.60
57660;DHT22;43485;45.680;15.702;2023-07-31T03:06:55;19.50;71.00
57660;DHT22;43485;45.680;15.702;2023-07-31T03:09:24;19.50;71.00
57660;DHT22;43485;45.680;15.702;2023-07-31T03:11:50;19.50;71.00
57660;DHT22;43485;45.680;15.702;2023-07-31T03:14:16;19.60;70.80
57660;DHT22;43485;45.680;15.702;2023-07-31T03:16:42;19.60;70.70
57660;DHT22;43485;45.680;15.702;2023-07-31T03:21:57;19.60;70.70
57660;DHT22;43485;45.680;15.702;2023-07-31T03:27:29;19.70;70.60
57660;DHT22;43485;45.680;15.702;2023-07-31T03:29:55;19.70;71.20
57660;DHT22;43485;45.680;15.702;2023-07-31T03:32:21;19.70;71.00
57660;DHT22;43485;45.680;15.702;2023-07-31T03:34:47;19.70;71.00
57660;DHT22;43485;45.680;15.702;2023-07-31T03:37:13;19.70;71.40
57660;DHT22;43485;45.680;15.702;2023-07-31T03:39:41;19.70;71.50
57660;DHT22;43485;45.680;15.702;2023-07-31T03:42:07;19.70;71.30
57660;DHT22;43485;45.680;15.702;2023-07-31T03:44:33;19.80;71.20
57660;DHT22;43485;45.680;15.702;2023-07-31T03:46:59;19.80;71.20
57660;DHT22;43485;45.680;15.702;2023-07-31T03:49:25;19.80;72.00
57660;DHT22;43485;45.680;15.702;2023-07-31T03:51:59;19.80;71.00
57660;DHT22;43485;45.680;15.702;2023-07-31T03:54:26;19.80;71.00
57660;DHT22;43485;45.680;15.702;2023-07-31T03:56:51;19.80;71.10
57660;DHT22;43485;45.680;15.702;2023-07-31T03:59:20;19.90;71.20
57660;DHT22;43485;45.680;15.702;2023-07-31T04:01:46;19.80;71.00
57660;DHT22;43485;45.680;15.702;2023-07-31T04:04:14;19.90;71.30
57660;DHT22;43485;45.680;15.702;2023-07-31T04:06:40;19.90;70.80
57660;DHT22;43485;45.680;15.702;2023-07-31T04:09:06;19.90;71.00
57660;DHT22;43485;45.680;15.702;2023-07-31T04:11:54;20.00;70.90
57660;DHT22;43485;45.680;15.702;2023-07-31T04:14:23;20.10;70.80
57660;DHT22;43485;45.680;15.702;2023-07-31T04:16:50;20.00;70.70
57660;DHT22;43485;45.680;15.702;2023-07-31T04:19:28;20.10;70.80
57660;DHT22;43485;45.680;15.702;2023-07-31T04:22:16;20.20;70.90
57660;DHT22;43485;45.680;15.702;2023-07-31T04:24:42;20.20;70.80
57660;DHT22;43485;45.680;15.702;2023-07-31T04:27:08;20.30;71.00
57660;DHT22;43485;45.680;15.702;2023-07-31T04:29:34;20.30;70.90
57660;DHT22;43485;45.680;15.702;2023-07-31T04:32:00;20.30;70.80
57660;DHT22;43485;45.680;15.702;2023-07-31T04:34:26;20.30;70.90
57660;DHT22;43485;45.680;15.702;2023-07-31T04:37:11;20.30;70.50
57660;DHT22;43485;45.680;15.702;2023-07-31T04:39:40;20.40;70.40
57660;DHT22;43485;45.680;15.702;2023-07-31T04:42:06;20.40;70.40
57660;DHT22;43485;45.680;15.702;2023-07-31T04:44:32;20.50;70.50
57660;DHT22;43485;45.680;15.702;2023-07-31T04:46:58;20.50;70.50
57660;DHT22;43485;45.680;15.702;2023-07-31T04:49:24;20.60;70.20
57660;DHT22;43485;45.680;15.702;2023-07-31T04:52:00;20.60;70.20
57660;DHT22;43485;45.680;15.702;2023-07-31T04:54:29;20.60;70.20
57660;DHT22;43485;45.680;15.702;2023-07-31T04:56:55;20.70;70.30
57660;DHT22;43485;45.680;15.702;2023-07-31T04:59:21;20.70;70.70
57660;DHT22;43485;45.680;15.702;2023-07-31T05:01:47;20.70;70.50
57660;DHT22;43485;45.680;15.702;2023-07-31T05:04:15;20.70;70.70
57660;DHT22;43485;45.680;15.702;2023-07-31T05:06:42;20.70;70.40
57660;DHT22;43485;45.680;15.702;2023-07-31T05:09:08;20.70;70.40
57660;DHT22;43485;45.680;15.702;2023-07-31T05:11:37;20.80;70.50
57660;DHT22;43485;45.680;15.702;2023-07-31T05:14:05;20.80;70.50
57660;DHT22;43485;45.680;15.702;2023-07-31T05:16:31;20.80;70.00
57660;DHT22;43485;45.680;15.702;2023-07-31T05:18:57;20.80;70.60
57660;DHT22;43485;45.680;15.702;2023-07-31T05:21:43;20.90;70.70
57660;DHT22;43485;45.680;15.702;2023-07-31T05:24:10;21.00;70.10
57660;DHT22;43485;45.680;15.702;2023-07-31T05:26:36;21.10;69.20
57660;DHT22;43485;45.680;15.702;2023-07-31T05:29:03;21.20;69.70
57660;DHT22;43485;45.680;15.702;2023-07-31T05:31:29;21.30;70.20
57660;DHT22;43485;45.680;15.702;2023-07-31T05:33:58;21.30;70.30
57660;DHT22;43485;45.680;15.702;2023-07-31T05:36:24;21.40;69.40
57660;DHT22;43485;45.680;15.702;2023-07-31T05:38:49;21.40;69.70
57660;DHT22;43485;45.680;15.702;2023-07-31T05:41:16;21.50;70.00
57660;DHT22;43485;45.680;15.702;2023-07-31T05:43:42;21.60;69.30
57660;DHT22;43485;45.680;15.702;2023-07-31T05:46:09;21.60;69.60
57660;DHT22;43485;45.680;15.702;2023-07-31T05:48:35;21.70;68.50
57660;DHT22;43485;45.680;15.702;2023-07-31T05:51:01;21.70;68.90
57660;DHT22;43485;45.680;15.702;2023-07-31T05:53:28;21.80;68.90
57660;DHT22;43485;45.680;15.702;2023-07-31T05:55:54;21.80;68.90
57660;DHT22;43485;45.680;15.702;2023-07-31T05:58:20;21.80;69.10
57660;DHT22;43485;45.680;15.702;2023-07-31T06:00:46;21.80;69.30
57660;DHT22;43485;45.680;15.702;2023-07-31T06:03:12;21.70;69.20
57660;DHT22;43485;45.680;15.702;2023-07-31T06:05:38;21.70;69.50
57660;DHT22;43485;45.680;15.702;2023-07-31T06:08:06;21.60;68.90
57660;DHT22;43485;45.680;15.702;2023-07-31T06:10:32;21.70;68.90
57660;DHT22;43485;45.680;15.702;2023-07-31T06:13:00;21.60;68.80
57660;DHT22;43485;45.680;15.702;2023-07-31T06:15:26;21.60;69.20
57660;DHT22;43485;45.680;15.702;2023-07-31T06:18:00;21.60;69.30
57660;DHT22;43485;45.680;15.702;2023-07-31T06:20:28;21.60;69.30
57660;DHT22;43485;45.680;15.702;2023-07-31T06:22:54;21.70;68.50
57660;DHT22;43485;45.680;15.702;2023-07-31T06:25:20;21.90;68.40
57660;DHT22;43485;45.680;15.702;2023-07-31T06:27:46;22.10;67.20
57660;DHT22;43485;45.680;15.702;2023-07-31T06:30:12;22.40;67.20
57660;DHT22;43485;45.680;15.702;2023-07-31T06:32:38;22.60;67.10
57660;DHT22;43485;45.680;15.702;2023-07-31T06:35:15;22.70;66.10
57660;DHT22;43485;45.680;15.702;2023-07-31T06:37:43;22.90;66.00
57660;DHT22;43485;45.680;15.702;2023-07-31T06:40:29;23.00;65.80
57660;DHT22;43485;45.680;15.702;2023-07-31T06:42:55;23.00;65.70
57660;DHT22;43485;45.680;15.702;2023-07-31T06:45:21;23.10;65.30
57660;DHT22;43485;45.680;15.702;2023-07-31T06:47:49;23.20;65.30
57660;DHT22;43485;45.680;15.702;2023-07-31T06:50:15;23.30;65.00
57660;DHT22;43485;45.680;15.702;2023-07-31T06:52:42;23.40;64.60
57660;DHT22;43485;45.680;15.702;2023-07-31T06:57:54;23.60;63.90
57660;DHT22;43485;45.680;15.702;2023-07-31T07:00:23;23.70;62.90
57660;DHT22;43485;45.680;15.702;2023-07-31T07:02:49;23.80;62.00
57660;DHT22;43485;45.680;15.702;2023-07-31T07:05:41;24.00;61.20
57660;DHT22;43485;45.680;15.702;2023-07-31T07:08:07;24.30;61.30
57660;DHT22;43485;45.680;15.702;2023-07-31T07:10:37;24.40;60.70
57660;DHT22;43485;45.680;15.702;2023-07-31T07:13:03;24.60;59.60
57660;DHT22;43485;45.680;15.702;2023-07-31T07:15:29;24.80;59.70
57660;DHT22;43485;45.680;15.702;2023-07-31T07:17:55;25.00;59.00
57660;DHT22;43485;45.680;15.702;2023-07-31T07:20:21;25.20;58.00
57660;DHT22;43485;45.680;15.702;2023-07-31T07:22:47;25.30;57.20
57660;DHT22;43485;45.680;15.702;2023-07-31T07:25:13;25.60;56.80
57660;DHT22;43485;45.680;15.702;2023-07-31T07:27:42;25.80;56.10
57660;DHT22;43485;45.680;15.702;2023-07-31T07:30:08;26.00;56.10
57660;DHT22;43485;45.680;15.702;2023-07-31T07:35:14;26.00;54.50
57660;DHT22;43485;45.680;15.702;2023-07-31T07:37:58;26.00;54.50
57660;DHT22;43485;45.680;15.702;2023-07-31T07:40:24;26.00;55.70
57660;DHT22;43485;45.680;15.702;2023-07-31T07:42:50;26.00;54.30
57660;DHT22;43485;45.680;15.702;2023-07-31T07:45:25;26.00;54.20
57660;DHT22;43485;45.680;15.702;2023-07-31T07:47:59;26.00;54.20
57660;DHT22;43485;45.680;15.702;2023-07-31T07:50:25;26.00;53.70
57660;DHT22;43485;45.680;15.702;2023-07-31T07:53:14;26.00;53.80
57660;DHT22;43485;45.680;15.702;2023-07-31T07:55:37;26.10;53.70
57660;DHT22;43485;45.680;15.702;2023-07-31T07:58:03;26.10;53.60
57660;DHT22;43485;45.680;15.702;2023-07-31T08:00:30;26.20;53.80
57660;DHT22;43485;45.680;15.702;2023-07-31T08:02:56;26.20;52.80
57660;DHT22;43485;45.680;15.702;2023-07-31T08:05:23;26.30;52.70
57660;DHT22;43485;45.680;15.702;2023-07-31T08:08:03;26.30;51.80
57660;DHT22;43485;45.680;15.702;2023-07-31T08:10:48;26.30;52.40
57660;DHT22;43485;45.680;15.702;2023-07-31T08:13:14;26.40;52.30
57660;DHT22;43485;45.680;15.702;2023-07-31T08:15:43;26.50;51.70
57660;DHT22;43485;45.680;15.702;2023-07-31T08:18:27;26.60;51.50
57660;DHT22;43485;45.680;15.702;2023-07-31T08:20:53;26.90;51.20
57660;DHT22;43485;45.680;15.702;2023-07-31T08:23:19;27.20;50.80
57660;DHT22;43485;45.680;15.702;2023-07-31T08:26:06;27.50;49.30
57660;DHT22;43485;45.680;15.702;2023-07-31T08:28:32;27.80;44.80
57660;DHT22;43485;45.680;15.702;2023-07-31T08:31:19;28.10;44.70
57660;DHT22;43485;45.680;15.702;2023-07-31T08:33:45;28.50;45.10
57660;DHT22;43485;45.680;15.702;2023-07-31T08:36:13;29.10;44.20
57660;DHT22;43485;45.680;15.702;2023-07-31T08:38:40;29.70;43.30
57660;DHT22;43485;45.680;15.702;2023-07-31T08:41:06;30.30;43.00
57660;DHT22;43485;45.680;15.702;2023-07-31T08:43:32;30.80;42.10
57660;DHT22;43485;45.680;15.702;2023-07-31T08:45:59;31.50;40.20
57660;DHT22;43485;45.680;15.702;2023-07-31T08:48:32;32.00;39.60
57660;DHT22;43485;45.680;15.702;2023-07-31T08:51:01;32.70;38.10
57660;DHT22;43485;45.680;15.702;2023-07-31T08:53:42;33.50;37.90
57660;DHT22;43485;45.680;15.702;2023-07-31T08:56:24;34.30;37.00
57660;DHT22;43485;45.680;15.702;2023-07-31T08:58:52;34.80;34.50
57660;DHT22;43485;45.680;15.702;2023-07-31T09:01:20;35.50;33.40
57660;DHT22;43485;45.680;15.702;2023-07-31T09:03:47;36.10;32.10
57660;DHT22;43485;45.680;15.702;2023-07-31T09:06:18;36.70;30.60
57660;DHT22;43485;45.680;15.702;2023-07-31T09:09:01;37.40;29.40
57660;DHT22;43485;45.680;15.702;2023-07-31T09:11:27;38.00;28.60
57660;DHT22;43485;45.680;15.702;2023-07-31T09:13:57;38.50;28.40
57660;DHT22;43485;45.680;15.702;2023-07-31T09:19:47;39.80;25.80
57660;DHT22;43485;45.680;15.702;2023-07-31T09:22:13;40.40;25.70
57660;DHT22;43485;45.680;15.702;2023-07-31T09:24:39;40.90;24.50
57660;DHT22;43485;45.680;15.702;2023-07-31T09:27:06;41.30;24.30
57660;DHT22;43485;45.680;15.702;2023-07-31T09:29:32;41.80;23.00
57660;DHT22;43485;45.680;15.702;2023-07-31T09:31:58;42.30;22.70
57660;DHT22;43485;45.680;15.702;2023-07-31T09:34:43;42.80;22.00
57660;DHT22;43485;45.680;15.702;2023-07-31T09:39:57;43.50;21.00
57660;DHT22;43485;45.680;15.702;2023-07-31T09:42:34;43.30;21.30
57660;DHT22;43485;45.680;15.702;2023-07-31T09:45:22;43.70;20.80
57660;DHT22;43485;45.680;15.702;2023-07-31T09:47:48;43.40;20.00
57660;DHT22;43485;45.680;15.702;2023-07-31T09:50:15;44.10;20.10
57660;DHT22;43485;45.680;15.702;2023-07-31T09:52:42;44.70;19.80
57660;DHT22;43485;45.680;15.702;2023-07-31T09:55:09;44.40;19.20
57660;DHT22;43485;45.680;15.702;2023-07-31T09:57:54;43.90;19.70
57660;DHT22;43485;45.680;15.702;2023-07-31T10:00:22;44.40;19.00
57660;DHT22;43485;45.680;15.702;2023-07-31T10:02:51;45.10;19.00
57660;DHT22;43485;45.680;15.702;2023-07-31T10:05:20;45.70;18.30
57660;DHT22;43485;45.680;15.702;2023-07-31T10:08:06;46.30;18.10
57660;DHT22;43485;45.680;15.702;2023-07-31T10:13:20;46.90;16.80
57660;DHT22;43485;45.680;15.702;2023-07-31T10:15:47;47.10;17.20
57660;DHT22;43485;45.680;15.702;2023-07-31T10:18:29;47.30;16.60
57660;DHT22;43485;45.680;15.702;2023-07-31T10:21:06;47.40;16.30
57660;DHT22;43485;45.680;15.702;2023-07-31T10:23:32;47.70;16.20
57660;DHT22;43485;45.680;15.702;2023-07-31T10:26:07;48.20;16.70
57660;DHT22;43485;45.680;15.702;2023-07-31T10:28:34;48.50;15.70
57660;DHT22;43485;45.680;15.702;2023-07-31T10:31:24;49.10;15.80
57660;DHT22;43485;45.680;15.702;2023-07-31T10:33:54;49.60;14.80
57660;DHT22;43485;45.680;15.702;2023-07-31T10:36:24;49.80;13.40
57660;DHT22;43485;45.680;15.702;2023-07-31T10:38:51;49.90;13.80
57660;DHT22;43485;45.680;15.702;2023-07-31T10:41:19;50.50;13.30
57660;DHT22;43485;45.680;15.702;2023-07-31T10:44:16;50.80;13.20
57660;DHT22;43485;45.680;15.702;2023-07-31T10:46:55;50.60;13.30
57660;DHT22;43485;45.680;15.702;2023-07-31T10:49:21;50.20;14.00
57660;DHT22;43485;45.680;15.702;2023-07-31T10:51:48;49.90;14.10
57660;DHT22;43485;45.680;15.702;2023-07-31T10:54:15;49.30;14.60
57660;DHT22;43485;45.680;15.702;2023-07-31T10:57:03;48.60;14.50
57660;DHT22;43485;45.680;15.702;2023-07-31T10:59:45;47.40;15.00
57660;DHT22;43485;45.680;15.702;2023-07-31T11:02:24;47.60;15.10
57660;DHT22;43485;45.680;15.702;2023-07-31T11:05:15;47.50;15.00
57660;DHT22;43485;45.680;15.702;2023-07-31T11:07:59;47.40;15.00
57660;DHT22;43485;45.680;15.702;2023-07-31T11:10:26;47.00;16.20
57660;DHT22;43485;45.680;15.702;2023-07-31T11:12:52;46.40;16.10
57660;DHT22;43485;45.680;15.702;2023-07-31T11:15:18;46.40;16.20
57660;DHT22;43485;45.680;15.702;2023-07-31T11:17:44;46.40;15.90
57660;DHT22;43485;45.680;15.702;2023-07-31T11:20:10;46.40;16.80
57660;DHT22;43485;45.680;15.702;2023-07-31T11:22:37;46.30;16.70
57660;DHT22;43485;45.680;15.702;2023-07-31T11:25:03;45.70;17.60
57660;DHT22;43485;45.680;15.702;2023-07-31T11:27:30;45.50;17.60
57660;DHT22;43485;45.680;15.702;2023-07-31T11:30:15;45.10;18.00
57660;DHT22;43485;45.680;15.702;2023-07-31T11:32:41;44.50;18.10
57660;DHT22;43485;45.680;15.702;2023-07-31T11:35:07;43.50;18.00
57660;DHT22;43485;45.680;15.702;2023-07-31T11:37:58;43.90;17.70
57660;DHT22;43485;45.680;15.702;2023-07-31T11:40:25;44.30;17.80
57660;DHT22;43485;45.680;15.702;2023-07-31T11:43:04;45.20;17.50
57660;DHT22;43485;45.680;15.702;2023-07-31T11:45:33;44.90;17.50
57660;DHT22;43485;45.680;15.702;2023-07-31T11:51:08;42.30;18.70
57660;DHT22;43485;45.680;15.702;2023-07-31T11:53:56;41.20;19.30
57660;DHT22;43485;45.680;15.702;2023-07-31T11:56:23;40.50;20.30
57660;DHT22;43485;45.680;15.702;2023-07-31T11:58:53;40.60;21.10
57660;DHT22;43485;45.680;15.702;2023-07-31T12:01:32;40.70;21.10
57660;DHT22;43485;45.680;15.702;2023-07-31T12:03:58;41.80;20.80
57660;DHT22;43485;45.680;15.702;2023-07-31T12:06:43;42.50;20.00
57660;DHT22;43485;45.680;15.702;2023-07-31T12:09:09;43.20;19.30
57660;DHT22;43485;45.680;15.702;2023-07-31T12:11:45;43.50;17.70
57660;DHT22;43485;45.680;15.702;2023-07-31T12:16:49;42.80;19.20
57660;DHT22;43485;45.680;15.702;2023-07-31T12:19:19;41.80;19.20
57660;DHT22;43485;45.680;15.702;2023-07-31T12:21:45;41.40;19.70
57660;DHT22;43485;45.680;15.702;2023-07-31T12:24:11;41.90;20.20
57660;DHT22;43485;45.680;15.702;2023-07-31T12:26:37;43.30;19.60
57660;DHT22;43485;45.680;15.702;2023-07-31T12:29:19;44.80;18.60
57660;DHT22;43485;45.680;15.702;2023-07-31T12:31:45;46.40;16.90
57660;DHT22;43485;45.680;15.702;2023-07-31T12:34:30;47.20;15.80
57660;DHT22;43485;45.680;15.702;2023-07-31T12:36:56;47.40;16.00
57660;DHT22;43485;45.680;15.702;2023-07-31T12:39:22;47.10;16.00
57660;DHT22;43485;45.680;15.702;2023-07-31T12:42:09;46.40;16.10
57660;DHT22;43485;45.680;15.702;2023-07-31T12:44:35;45.70;15.90
57660;DHT22;43485;45.680;15.702;2023-07-31T12:47:16;45.90;15.90
57660;DHT22;43485;45.680;15.702;2023-07-31T12:49:43;47.00;16.30
57660;DHT22;43485;45.680;15.702;2023-07-31T12:52:09;47.70;14.90
57660;DHT22;43485;45.680;15.702;2023-07-31T12:54:35;46.90;15.30
57660;DHT22;43485;45.680;15.702;2023-07-31T12:57:01;46.60;15.50
57660;DHT22;43485;45.680;15.702;2023-07-31T12:59:27;46.50;16.20
57660;DHT22;43485;45.680;15.702;2023-07-31T13:01:53;45.20;16.50
57660;DHT22;43485;45.680;15.702;2023-07-31T13:04:19;44.00;17.10
57660;DHT22;43485;45.680;15.702;2023-07-31T13:06:45;43.10;18.30
57660;DHT22;43485;45.680;15.702;2023-07-31T13:09:18;42.80;18.80
57660;DHT22;43485;45.680;15.702;2023-07-31T13:12:06;43.70;18.40
57660;DHT22;43485;45.680;15.702;2023-07-31T13:14:38;43.20;18.10
57660;DHT22;43485;45.680;15.702;2023-07-31T13:17:04;42.20;18.70
57660;DHT22;43485;45.680;15.702;2023-07-31T13:19:30;41.20;19.50
57660;DHT22;43485;45.680;15.702;2023-07-31T13:21:56;42.30;18.80
57660;DHT22;43485;45.680;15.702;2023-07-31T13:24:25;44.50;18.00
57660;DHT22;43485;45.680;15.702;2023-07-31T13:26:51;46.60;16.40
57660;DHT22;43485;45.680;15.702;2023-07-31T13:29:41;47.80;15.40
57660;DHT22;43485;45.680;15.702;2023-07-31T13:32:08;48.80;14.40
57660;DHT22;43485;45.680;15.702;2023-07-31T13:34:34;49.40;14.90
57660;DHT22;43485;45.680;15.702;2023-07-31T13:39:46;49.80;13.80
57660;DHT22;43485;45.680;15.702;2023-07-31T13:42:12;50.30;12.80
57660;DHT22;43485;45.680;15.702;2023-07-31T13:44:39;50.70;13.40
57660;DHT22;43485;45.680;15.702;2023-07-31T13:47:05;51.40;12.20
57660;DHT22;43485;45.680;15.702;2023-07-31T13:49:32;51.20;12.80
57660;DHT22;43485;45.680;15.702;2023-07-31T13:51:58;51.30;13.10
57660;DHT22;43485;45.680;15.702;2023-07-31T13:54:42;51.90;12.70
57660;DHT22;43485;45.680;15.702;2023-07-31T13:57:08;52.00;12.00
57660;DHT22;43485;45.680;15.702;2023-07-31T13:59:37;52.60;12.30
57660;DHT22;43485;45.680;15.702;2023-07-31T14:02:03;53.00;11.30
57660;DHT22;43485;45.680;15.702;2023-07-31T14:04:29;52.80;10.00
57660;DHT22;43485;45.680;15.702;2023-07-31T14:07:15;52.60;11.30
57660;DHT22;43485;45.680;15.702;2023-07-31T14:09:44;53.00;11.50
57660;DHT22;43485;45.680;15.702;2023-07-31T14:12:10;53.40;11.70
57660;DHT22;43485;45.680;15.702;2023-07-31T14:14:42;53.60;11.70
57660;DHT22;43485;45.680;15.702;2023-07-31T14:17:08;53.30;11.60
57660;DHT22;43485;45.680;15.702;2023-07-31T14:19:34;53.40;11.70
57660;DHT22;43485;45.680;15.702;2023-07-31T14:22:08;53.10;11.70
57660;DHT22;43485;45.680;15.702;2023-07-31T14:24:34;52.70;11.20
57660;DHT22;43485;45.680;15.702;2023-07-31T14:27:36;52.70;11.80
57660;DHT22;43485;45.680;15.702;2023-07-31T14:30:02;52.60;11.80
57660;DHT22;43485;45.680;15.702;2023-07-31T14:32:32;51.80;11.80
57660;DHT22;43485;45.680;15.702;2023-07-31T14:34:58;50.20;13.50
57660;DHT22;43485;45.680;15.702;2023-07-31T14:37:26;48.20;14.20
57660;DHT22;43485;45.680;15.702;2023-07-31T14:39:53;46.10;15.60
57660;DHT22;43485;45.680;15.702;2023-07-31T14:42:19;44.50;16.90
57660;DHT22;43485;45.680;15.702;2023-07-31T14:44:47;43.10;17.90
57660;DHT22;43485;45.680;15.702;2023-07-31T14:47:35;41.90;18.90
57660;DHT22;43485;45.680;15.702;2023-07-31T14:50:00;41.10;19.60
57660;DHT22;43485;45.680;15.702;2023-07-31T14:55:11;39.40;21.10
57660;DHT22;43485;45.680;15.702;2023-07-31T14:57:37;38.80;21.90
57660;DHT22;43485;45.680;15.702;2023-07-31T15:00:12;38.40;22.10
57660;DHT22;43485;45.680;15.702;2023-07-31T15:02:39;38.00;22.20
57660;DHT22;43485;45.680;15.702;2023-07-31T15:05:08;37.60;22.50
57660;DHT22;43485;45.680;15.702;2023-07-31T15:07:35;37.10;23.60
57660;DHT22;43485;45.680;15.702;2023-07-31T15:10:59;36.90;23.70
57660;DHT22;43485;45.680;15.702;2023-07-31T15:13:25;36.60;24.60
57660;DHT22;43485;45.680;15.702;2023-07-31T15:15:54;36.40;24.70
57660;DHT22;43485;45.680;15.702;2023-07-31T15:18:29;36.00;24.50
57660;DHT22;43485;45.680;15.702;2023-07-31T15:20:55;35.70;25.50
57660;DHT22;43485;45.680;15.702;2023-07-31T15:23:23;35.50;25.50
57660;DHT22;43485;45.680;15.702;2023-07-31T15:25:54;35.40;25.70
57660;DHT22;43485;45.680;15.702;2023-07-31T15:28:22;34.90;26.30
57660;DHT22;43485;45.680;15.702;2023-07-31T15:30:48;34.80;26.70
57660;DHT22;43485;45.680;15.702;2023-07-31T15:33:17;34.60;26.70
57660;DHT22;43485;45.680;15.702;2023-07-31T15:35:43;34.50;26.70
57660;DHT22;43485;45.680;15.702;2023-07-31T15:38:09;34.20;27.70
57660;DHT22;43485;45.680;15.702;2023-07-31T15:40:35;34.00;28.10
57660;DHT22;43485;45.680;15.702;2023-07-31T15:43:01;34.00;28.30
57660;DHT22;43485;45.680;15.702;2023-07-31T15:45:28;33.70;28.60
57660;DHT22;43485;45.680;15.702;2023-07-31T15:48:08;33.50;28.50
57660;DHT22;43485;45.680;15.702;2023-07-31T15:50:36;33.50;29.20
57660;DHT22;43485;45.680;15.702;2023-07-31T15:53:02;33.30;29.00
57660;DHT22;43485;45.680;15.702;2023-07-31T15:55:30;33.30;29.50
57660;DHT22;43485;45.680;15.702;2023-07-31T15:57:56;33.30;29.90
57660;DHT22;43485;45.680;15.702;2023-07-31T16:00:25;33.00;30.50
57660;DHT22;43485;45.680;15.702;2023-07-31T16:02:59;32.80;30.20
57660;DHT22;43485;45.680;15.702;2023-07-31T16:05:30;32.60;31.30
57660;DHT22;43485;45.680;15.702;2023-07-31T16:08:08;32.50;30.80
57660;DHT22;43485;45.680;15.702;2023-07-31T16:10:34;32.50;31.20
57660;DHT22;43485;45.680;15.702;2023-07-31T16:13:02;32.40;31.30
57660;DHT22;43485;45.680;15.702;2023-07-31T16:15:29;32.30;30.90
57660;DHT22;43485;45.680;15.702;2023-07-31T16:18:18;32.30;31.10